sensor_id;sensor_type;location;lat;lon;timestamp;temperature;humidity
5346;DHT22;2695;49.444;11.054;2023-06-10T00:00:05;19.90;75.20
5346;DHT22;2695;49.444;11.054;2023-06-10T00:02:35;19.90;75.70
5346;DHT22;2695;49.444;11.054;2023-06-10T00:05:05;19.80;76.30
5346;DHT22;2695;49.444;11.054;2023-06-10T00:07:34;19.70;76.70
5346;DHT22;2695;49.444;11.054;2023-06-10T00:10:05;19.60;77.20
5346;DHT22;2695;49.444;11.054;2023-06-10T00:12:33;19.50;78.10
5346;DHT22;2695;49.444;11.054;2023-06-10T00:15:04;19.50;78.60
5346;DHT22;2695;49.444;11.054;2023-06-10T00:17:35;19.50;79.30
5346;DHT22;2695;49.444;11.054;2023-06-10T00:20:07;19.40;80.00
5346;DHT22;2695;49.444;11.054;2023-06-10T00:22:37;19.40;80.70
5346;DHT22;2695;49.444;11.054;2023-06-10T00:25:07;19.30;81.20
5346;DHT22;2695;49.444;11.054;2023-06-10T00:27:36;19.30;81.90
5346;DHT22;2695;49.444;11.054;2023-06-10T00:30:05;19.30;82.20
5346;DHT22;2695;49.444;11.054;2023-06-10T00:32:36;19.30;82.80
5346;DHT22;2695;49.444;11.054;2023-06-10T00:35:05;19.20;83.50
5346;DHT22;2695;49.444;11.054;2023-06-10T00:37:34;19.10;84.40
5346;DHT22;2695;49.444;11.054;2023-06-10T00:40:03;19.10;85.40
5346;DHT22;2695;49.444;11.054;2023-06-10T00:42:31;19.10;86.30
5346;DHT22;2695;49.444;11.054;2023-06-10T00:44:59;19.00;87.10
5346;DHT22;2695;49.444;11.054;2023-06-10T00:47:28;19.10;88.70
5346;DHT22;2695;49.444;11.054;2023-06-10T00:49:58;18.90;89.20
5346;DHT22;2695;49.444;11.054;2023-06-10T00:52:28;18.90;90.10
5346;DHT22;2695;49.444;11.054;2023-06-10T00:54:57;18.80;90.40
5346;DHT22;2695;49.444;11.054;2023-06-10T00:57:26;18.80;90.90
5346;DHT22;2695;49.444;11.054;2023-06-10T00:59:54;18.70;91.30
5346;DHT22;2695;49.444;11.054;2023-06-10T01:02:22;18.70;91.80
5346;DHT22;2695;49.444;11.054;2023-06-10T01:04:50;18.60;92.50
5346;DHT22;2695;49.444;11.054;2023-06-10T01:07:25;18.60;93.00
5346;DHT22;2695;49.444;11.054;2023-06-10T01:09:56;18.60;93.60
5346;DHT22;2695;49.444;11.054;2023-06-10T01:12:31;18.50;94.20
5346;DHT22;2695;49.444;11.054;2023-06-10T01:15:01;18.50;95.00
5346;DHT22;2695;49.444;11.054;2023-06-10T01:17:30;18.40;95.80
5346;DHT22;2695;49.444;11.054;2023-06-10T01:19:59;18.40;96.30
5346;DHT22;2695;49.444;11.054;2023-06-10T01:22:30;18.40;97.00
5346;DHT22;2695;49.444;11.054;2023-06-10T01:25:04;18.50;97.90
5346;DHT22;2695;49.444;11.054;2023-06-10T01:27:37;18.50;98.80
5346;DHT22;2695;49.444;11.054;2023-06-10T01:30:13;18.50;99.10
5346;DHT22;2695;49.444;11.054;2023-06-10T01:32:45;18.50;99.90
5346;DHT22;2695;49.444;11.054;2023-06-10T01:35:17;18.50;99.90
5346;DHT22;2695;49.444;11.054;2023-06-10T01:37:47;18.50;99.90
5346;DHT22;2695;49.444;11.054;2023-06-10T01:40:16;18.50;99.90
5346;DHT22;2695;49.444;11.054;2023-06-10T01:42:44;18.50;99.90
5346;DHT22;2695;49.444;11.054;2023-06-10T01:45:13;18.50;99.90
5346;DHT22;2695;49.444;11.054;2023-06-10T01:47:41;18.50;99.90
5346;DHT22;2695;49.444;11.054;2023-06-10T01:50:09;18.40;99.90
5346;DHT22;2695;49.444;11.054;2023-06-10T01:52:38;18.40;99.90
5346;DHT22;2695;49.444;11.054;2023-06-10T01:55:08;18.50;99.90
5346;DHT22;2695;49.444;11.054;2023-06-10T01:57:36;18.50;99.90
5346;DHT22;2695;49.444;11.054;2023-06-10T02:00:05;18.60;99.90
5346;DHT22;2695;49.444;11.054;2023-06-10T02:02:34;18.60;99.90
5346;DHT22;2695;49.444;11.054;2023-06-10T02:05:03;18.70;99.90
5346;DHT22;2695;49.444;11.054;2023-06-10T02:07:32;18.70;99.90
5346;DHT22;2695;49.444;11.054;2023-06-10T02:10:00;18.70;99.90
5346;DHT22;2695;49.444;11.054;2023-06-10T02:12:29;18.70;99.90
5346;DHT22;2695;49.444;11.054;2023-06-10T02:14:58;18.70;99.90
5346;DHT22;2695;49.444;11.054;2023-06-10T02:17:26;18.60;99.90
5346;DHT22;2695;49.444;11.054;2023-06-10T02:19:54;18.50;99.90
5346;DHT22;2695;49.444;11.054;2023-06-10T02:22:23;18.50;99.90
5346;DHT22;2695;49.444;11.054;2023-06-10T02:24:51;18.40;99.90
5346;DHT22;2695;49.444;11.054;2023-06-10T02:27:20;18.30;99.90
5346;DHT22;2695;49.444;11.054;2023-06-10T02:29:50;18.20;99.90
5346;DHT22;2695;49.444;11.054;2023-06-10T02:32:19;18.20;99.90
5346;DHT22;2695;49.444;11.054;2023-06-10T02:34:47;18.20;99.90
5346;DHT22;2695;49.444;11.054;2023-06-10T02:37:16;18.20;99.90
5346;DHT22;2695;49.444;11.054;2023-06-10T02:39:44;18.10;99.90
5346;DHT22;2695;49.444;11.054;2023-06-10T02:42:12;18.10;99.90
5346;DHT22;2695;49.444;11.054;2023-06-10T02:44:40;18.10;99.90
5346;DHT22;2695;49.444;11.054;2023-06-10T02:47:10;18.10;99.90
5346;DHT22;2695;49.444;11.054;2023-06-10T02:49:38;18.00;99.90
5346;DHT22;2695;49.444;11.054;2023-06-10T02:52:07;18.00;99.90
5346;DHT22;2695;49.444;11.054;2023-06-10T02:54:37;18.00;99.90
5346;DHT22;2695;49.444;11.054;2023-06-10T02:57:06;18.00;99.90
5346;DHT22;2695;49.444;11.054;2023-06-10T02:59:34;17.90;99.90
5346;DHT22;2695;49.444;11.054;2023-06-10T03:02:03;17.90;99.90
5346;DHT22;2695;49.444;11.054;2023-06-10T03:04:32;17.90;99.90
5346;DHT22;2695;49.444;11.054;2023-06-10T03:07:00;17.90;99.90
5346;DHT22;2695;49.444;11.054;2023-06-10T03:09:30;17.90;99.90
5346;DHT22;2695;49.444;11.054;2023-06-10T03:11:58;17.80;99.90
5346;DHT22;2695;49.444;11.054;2023-06-10T03:14:27;17.80;99.90
5346;DHT22;2695;49.444;11.054;2023-06-10T03:16:55;17.80;99.90
5346;DHT22;2695;49.444;11.054;2023-06-10T03:19:23;17.70;99.90
5346;DHT22;2695;49.444;11.054;2023-06-10T03:22:07;17.70;99.90
5346;DHT22;2695;49.444;11.054;2023-06-10T03:24:35;17.80;99.90
5346;DHT22;2695;49.444;11.054;2023-06-10T03:27:07;17.80;99.90
5346;DHT22;2695;49.444;11.054;2023-06-10T03:29:35;17.70;99.90
5346;DHT22;2695;49.444;11.054;2023-06-10T03:32:04;17.80;99.90
5346;DHT22;2695;49.444;11.054;2023-06-10T03:34:32;17.80;99.90
5346;DHT22;2695;49.444;11.054;2023-06-10T03:37:02;17.90;99.90
5346;DHT22;2695;49.444;11.054;2023-06-10T03:39:30;17.90;99.90
5346;DHT22;2695;49.444;11.054;2023-06-10T03:41:58;18.00;99.90
5346;DHT22;2695;49.444;11.054;2023-06-10T03:44:27;18.50;99.90
5346;DHT22;2695;49.444;11.054;2023-06-10T03:46:55;19.00;99.90
5346;DHT22;2695;49.444;11.054;2023-06-10T03:49:24;19.60;99.90
5346;DHT22;2695;49.444;11.054;2023-06-10T03:51:53;20.20;99.90
5346;DHT22;2695;49.444;11.054;2023-06-10T03:54:23;20.60;99.90
5346;DHT22;2695;49.444;11.054;2023-06-10T03:56:51;21.10;99.90
5346;DHT22;2695;49.444;11.054;2023-06-10T03:59:19;21.60;99.90
5346;DHT22;2695;49.444;11.054;2023-06-10T04:01:47;22.10;99.90
5346;DHT22;2695;49.444;11.054;2023-06-10T04:04:15;22.50;99.90
5346;DHT22;2695;49.444;11.054;2023-06-10T04:06:44;23.00;99.90
5346;DHT22;2695;49.444;11.054;2023-06-10T04:09:13;23.40;99.90
5346;DHT22;2695;49.444;11.054;2023-06-10T04:11:42;23.80;99.90
5346;DHT22;2695;49.444;11.054;2023-06-10T04:14:10;24.30;99.40
5346;DHT22;2695;49.444;11.054;2023-06-10T04:16:40;24.80;98.10
5346;DHT22;2695;49.444;11.054;2023-06-10T04:19:09;25.20;96.90
5346;DHT22;2695;49.444;11.054;2023-06-10T04:21:37;25.70;95.40
5346;DHT22;2695;49.444;11.054;2023-06-10T04:24:05;26.20;93.40
5346;DHT22;2695;49.444;11.054;2023-06-10T04:26:35;26.50;91.80
5346;DHT22;2695;49.444;11.054;2023-06-10T04:29:05;26.90;90.60
5346;DHT22;2695;49.444;11.054;2023-06-10T04:31:33;27.30;89.10
5346;DHT22;2695;49.444;11.054;2023-06-10T04:34:01;27.70;86.40
5346;DHT22;2695;49.444;11.054;2023-06-10T04:36:29;28.00;84.10
5346;DHT22;2695;49.444;11.054;2023-06-10T04:38:57;28.30;81.30
5346;DHT22;2695;49.444;11.054;2023-06-10T04:41:25;28.80;78.90
5346;DHT22;2695;49.444;11.054;2023-06-10T04:43:53;29.30;76.00
5346;DHT22;2695;49.444;11.054;2023-06-10T04:46:23;29.60;73.90
5346;DHT22;2695;49.444;11.054;2023-06-10T04:48:51;29.90;71.50
5346;DHT22;2695;49.444;11.054;2023-06-10T04:51:21;30.30;68.70
5346;DHT22;2695;49.444;11.054;2023-06-10T04:53:49;30.70;67.10
5346;DHT22;2695;49.444;11.054;2023-06-10T04:56:17;31.20;64.40
5346;DHT22;2695;49.444;11.054;2023-06-10T04:58:45;31.60;62.60
5346;DHT22;2695;49.444;11.054;2023-06-10T05:01:13;32.10;59.90
5346;DHT22;2695;49.444;11.054;2023-06-10T05:03:43;32.50;57.50
5346;DHT22;2695;49.444;11.054;2023-06-10T05:06:11;32.80;56.90
5346;DHT22;2695;49.444;11.054;2023-06-10T05:08:39;33.10;55.80
5346;DHT22;2695;49.444;11.054;2023-06-10T05:11:06;33.30;54.60
5346;DHT22;2695;49.444;11.054;2023-06-10T05:13:35;33.70;53.40
5346;DHT22;2695;49.444;11.054;2023-06-10T05:16:03;34.20;51.70
5346;DHT22;2695;49.444;11.054;2023-06-10T05:18:31;34.50;50.70
5346;DHT22;2695;49.444;11.054;2023-06-10T05:21:01;34.70;49.60
5346;DHT22;2695;49.444;11.054;2023-06-10T05:23:29;34.80;48.90
5346;DHT22;2695;49.444;11.054;2023-06-10T05:25:57;35.10;48.40
5346;DHT22;2695;49.444;11.054;2023-06-10T05:28:26;35.50;47.10
5346;DHT22;2695;49.444;11.054;2023-06-10T05:30:54;35.90;46.10
5346;DHT22;2695;49.444;11.054;2023-06-10T05:33:22;36.30;44.70
5346;DHT22;2695;49.444;11.054;2023-06-10T05:35:50;36.50;44.40
5346;DHT22;2695;49.444;11.054;2023-06-10T05:38:19;37.00;43.40
5346;DHT22;2695;49.444;11.054;2023-06-10T05:40:47;37.40;42.70
5346;DHT22;2695;49.444;11.054;2023-06-10T05:43:15;37.70;41.90
5346;DHT22;2695;49.444;11.054;2023-06-10T05:45:44;37.90;41.20
5346;DHT22;2695;49.444;11.054;2023-06-10T05:48:12;38.30;40.80
5346;DHT22;2695;49.444;11.054;2023-06-10T05:50:40;38.40;40.40
5346;DHT22;2695;49.444;11.054;2023-06-10T05:53:09;38.70;39.60
5346;DHT22;2695;49.444;11.054;2023-06-10T05:55:44;38.70;39.60
5346;DHT22;2695;49.444;11.054;2023-06-10T05:58:13;38.80;39.40
5346;DHT22;2695;49.444;11.054;2023-06-10T06:00:41;39.20;38.50
5346;DHT22;2695;49.444;11.054;2023-06-10T06:03:09;39.50;38.10
5346;DHT22;2695;49.444;11.054;2023-06-10T06:05:38;39.60;37.80
5346;DHT22;2695;49.444;11.054;2023-06-10T06:08:06;39.90;37.30
5346;DHT22;2695;49.444;11.054;2023-06-10T06:10:34;40.30;36.60
5346;DHT22;2695;49.444;11.054;2023-06-10T06:13:03;40.50;36.40
5346;DHT22;2695;49.444;11.054;2023-06-10T06:15:31;40.70;35.70
5346;DHT22;2695;49.444;11.054;2023-06-10T06:17:59;40.90;35.40
5346;DHT22;2695;49.444;11.054;2023-06-10T06:20:27;41.20;34.90
5346;DHT22;2695;49.444;11.054;2023-06-10T06:22:55;41.50;34.30
5346;DHT22;2695;49.444;11.054;2023-06-10T06:25:23;41.70;34.00
5346;DHT22;2695;49.444;11.054;2023-06-10T06:27:51;42.10;33.10
5346;DHT22;2695;49.444;11.054;2023-06-10T06:30:21;42.20;32.90
5346;DHT22;2695;49.444;11.054;2023-06-10T06:32:49;42.50;32.60
5346;DHT22;2695;49.444;11.054;2023-06-10T06:35:18;42.80;32.30
5346;DHT22;2695;49.444;11.054;2023-06-10T06:37:46;43.00;31.60
5346;DHT22;2695;49.444;11.054;2023-06-10T06:40:14;43.10;31.70
5346;DHT22;2695;49.444;11.054;2023-06-10T06:42:42;43.30;31.10
5346;DHT22;2695;49.444;11.054;2023-06-10T06:45:10;43.40;30.80
5346;DHT22;2695;49.444;11.054;2023-06-10T06:47:40;43.50;30.80
5346;DHT22;2695;49.444;11.054;2023-06-10T06:50:09;43.50;30.70
5346;DHT22;2695;49.444;11.054;2023-06-10T06:52:37;43.70;30.70
5346;DHT22;2695;49.444;11.054;2023-06-10T06:55:05;43.90;30.30
5346;DHT22;2695;49.444;11.054;2023-06-10T06:57:34;44.20;29.90
5346;DHT22;2695;49.444;11.054;2023-06-10T07:00:04;44.30;29.70
5346;DHT22;2695;49.444;11.054;2023-06-10T07:02:32;44.30;29.80
5346;DHT22;2695;49.444;11.054;2023-06-10T07:05:02;44.40;29.80
5346;DHT22;2695;49.444;11.054;2023-06-10T07:07:30;44.70;29.40
5346;DHT22;2695;49.444;11.054;2023-06-10T07:09:58;44.70;29.30
5346;DHT22;2695;49.444;11.054;2023-06-10T07:12:26;44.90;29.10
5346;DHT22;2695;49.444;11.054;2023-06-10T07:14:54;44.10;27.80
5346;DHT22;2695;49.444;11.054;2023-06-10T07:17:22;43.50;28.30
5346;DHT22;2695;49.444;11.054;2023-06-10T07:19:50;41.90;29.50
5346;DHT22;2695;49.444;11.054;2023-06-10T07:22:20;40.30;30.40
5346;DHT22;2695;49.444;11.054;2023-06-10T07:24:48;39.00;32.80
5346;DHT22;2695;49.444;11.054;2023-06-10T07:27:18;39.30;32.80
5346;DHT22;2695;49.444;11.054;2023-06-10T07:29:46;39.30;32.10
5346;DHT22;2695;49.444;11.054;2023-06-10T07:32:14;38.50;33.40
5346;DHT22;2695;49.444;11.054;2023-06-10T07:34:45;38.20;33.60
5346;DHT22;2695;49.444;11.054;2023-06-10T07:37:13;38.50;34.20
5346;DHT22;2695;49.444;11.054;2023-06-10T07:39:42;38.90;33.00
5346;DHT22;2695;49.444;11.054;2023-06-10T07:42:11;38.10;33.90
5346;DHT22;2695;49.444;11.054;2023-06-10T07:44:39;37.90;34.90
5346;DHT22;2695;49.444;11.054;2023-06-10T07:47:07;38.00;34.30
5346;DHT22;2695;49.444;11.054;2023-06-10T07:49:35;38.30;34.00
5346;DHT22;2695;49.444;11.054;2023-06-10T07:52:03;38.30;34.40
5346;DHT22;2695;49.444;11.054;2023-06-10T07:54:31;38.30;34.20
5346;DHT22;2695;49.444;11.054;2023-06-10T07:57:01;38.20;34.20
5346;DHT22;2695;49.444;11.054;2023-06-10T07:59:29;38.70;33.70
5346;DHT22;2695;49.444;11.054;2023-06-10T08:01:57;39.30;32.70
5346;DHT22;2695;49.444;11.054;2023-06-10T08:04:25;39.60;32.70
5346;DHT22;2695;49.444;11.054;2023-06-10T08:06:53;40.70;31.30
5346;DHT22;2695;49.444;11.054;2023-06-10T08:09:21;41.10;31.60
5346;DHT22;2695;49.444;11.054;2023-06-10T08:11:49;40.90;30.40
5346;DHT22;2695;49.444;11.054;2023-06-10T08:14:19;40.70;30.90
5346;DHT22;2695;49.444;11.054;2023-06-10T08:16:47;40.50;30.90
5346;DHT22;2695;49.444;11.054;2023-06-10T08:19:15;40.80;30.60
5346;DHT22;2695;49.444;11.054;2023-06-10T08:21:43;40.80;30.60
5346;DHT22;2695;49.444;11.054;2023-06-10T08:24:11;41.50;30.40
5346;DHT22;2695;49.444;11.054;2023-06-10T08:26:42;42.10;29.40
5346;DHT22;2695;49.444;11.054;2023-06-10T08:29:12;42.10;29.30
5346;DHT22;2695;49.444;11.054;2023-06-10T08:31:43;42.30;29.20
5346;DHT22;2695;49.444;11.054;2023-06-10T08:34:11;41.60;29.20
5346;DHT22;2695;49.444;11.054;2023-06-10T08:36:39;40.90;29.90
5346;DHT22;2695;49.444;11.054;2023-06-10T08:39:07;41.10;30.00
5346;DHT22;2695;49.444;11.054;2023-06-10T08:41:39;41.30;29.80
5346;DHT22;2695;49.444;11.054;2023-06-10T08:44:17;40.80;30.00
5346;DHT22;2695;49.444;11.054;2023-06-10T08:46:50;40.70;30.10
5346;DHT22;2695;49.444;11.054;2023-06-10T08:49:22;40.10;30.90
5346;DHT22;2695;49.444;11.054;2023-06-10T08:51:51;40.10;30.70
5346;DHT22;2695;49.444;11.054;2023-06-10T08:54:22;40.60;30.20
5346;DHT22;2695;49.444;11.054;2023-06-10T08:56:54;40.60;30.20
5346;DHT22;2695;49.444;11.054;2023-06-10T08:59:23;40.00;30.30
5346;DHT22;2695;49.444;11.054;2023-06-10T09:01:54;39.50;30.90
5346;DHT22;2695;49.444;11.054;2023-06-10T09:04:24;38.70;31.70
5346;DHT22;2695;49.444;11.054;2023-06-10T09:06:53;38.50;32.30
5346;DHT22;2695;49.444;11.054;2023-06-10T09:09:23;38.40;31.80
5346;DHT22;2695;49.444;11.054;2023-06-10T09:11:51;38.50;32.50
5346;DHT22;2695;49.444;11.054;2023-06-10T09:14:19;38.40;32.60
5346;DHT22;2695;49.444;11.054;2023-06-10T09:16:47;38.00;32.50
5346;DHT22;2695;49.444;11.054;2023-06-10T09:19:17;37.60;33.40
5346;DHT22;2695;49.444;11.054;2023-06-10T09:21:47;37.50;33.80
5346;DHT22;2695;49.444;11.054;2023-06-10T09:24:16;38.10;33.60
5346;DHT22;2695;49.444;11.054;2023-06-10T09:26:44;38.90;32.90
5346;DHT22;2695;49.444;11.054;2023-06-10T09:29:17;39.10;32.60
5346;DHT22;2695;49.444;11.054;2023-06-10T09:31:45;38.90;32.20
5346;DHT22;2695;49.444;11.054;2023-06-10T09:34:14;39.30;31.90
5346;DHT22;2695;49.444;11.054;2023-06-10T09:36:45;38.50;32.50
5346;DHT22;2695;49.444;11.054;2023-06-10T09:39:15;38.20;33.00
5346;DHT22;2695;49.444;11.054;2023-06-10T09:41:45;37.50;33.30
5346;DHT22;2695;49.444;11.054;2023-06-10T09:44:13;37.40;34.20
5346;DHT22;2695;49.444;11.054;2023-06-10T09:46:42;37.70;34.00
5346;DHT22;2695;49.444;11.054;2023-06-10T09:49:12;38.00;34.00
5346;DHT22;2695;49.444;11.054;2023-06-10T09:51:50;38.20;33.30
5346;DHT22;2695;49.444;11.054;2023-06-10T09:54:19;38.80;33.20
5346;DHT22;2695;49.444;11.054;2023-06-10T09:56:48;38.30;33.40
5346;DHT22;2695;49.444;11.054;2023-06-10T09:59:16;38.50;33.60
5346;DHT22;2695;49.444;11.054;2023-06-10T10:01:54;38.30;33.00
5346;DHT22;2695;49.444;11.054;2023-06-10T10:04:23;37.90;33.90
5346;DHT22;2695;49.444;11.054;2023-06-10T10:06:53;38.00;33.90
5346;DHT22;2695;49.444;11.054;2023-06-10T10:09:21;38.60;33.50
5346;DHT22;2695;49.444;11.054;2023-06-10T10:11:49;38.80;32.90
5346;DHT22;2695;49.444;11.054;2023-06-10T10:14:20;38.60;33.00
5346;DHT22;2695;49.444;11.054;2023-06-10T10:16:49;36.60;35.00
5346;DHT22;2695;49.444;11.054;2023-06-10T10:19:22;36.20;36.20
5346;DHT22;2695;49.444;11.054;2023-06-10T10:21:56;36.30;36.00
5346;DHT22;2695;49.444;11.054;2023-06-10T10:24:34;36.80;35.70
5346;DHT22;2695;49.444;11.054;2023-06-10T10:27:07;37.40;34.80
5346;DHT22;2695;49.444;11.054;2023-06-10T10:29:40;38.00;34.40
5346;DHT22;2695;49.444;11.054;2023-06-10T10:32:08;38.40;33.80
5346;DHT22;2695;49.444;11.054;2023-06-10T10:34:43;38.70;33.50
5346;DHT22;2695;49.444;11.054;2023-06-10T10:37:16;37.40;34.20
5346;DHT22;2695;49.444;11.054;2023-06-10T10:39:45;35.40;37.00
5346;DHT22;2695;49.444;11.054;2023-06-10T10:42:13;33.90;39.00
5346;DHT22;2695;49.444;11.054;2023-06-10T10:44:42;33.00;41.00
5346;DHT22;2695;49.444;11.054;2023-06-10T10:47:11;33.00;41.20
5346;DHT22;2695;49.444;11.054;2023-06-10T10:49:43;34.10;40.50
5346;DHT22;2695;49.444;11.054;2023-06-10T10:52:12;34.50;38.50
5346;DHT22;2695;49.444;11.054;2023-06-10T10:54:46;34.10;39.80
5346;DHT22;2695;49.444;11.054;2023-06-10T10:57:15;33.50;40.80
5346;DHT22;2695;49.444;11.054;2023-06-10T10:59:46;32.70;41.40
5346;DHT22;2695;49.444;11.054;2023-06-10T11:02:19;31.40;43.70
5346;DHT22;2695;49.444;11.054;2023-06-10T11:05:00;30.40;46.10
5346;DHT22;2695;49.444;11.054;2023-06-10T11:07:30;29.60;48.10
5346;DHT22;2695;49.444;11.054;2023-06-10T11:10:01;29.20;49.30
5346;DHT22;2695;49.444;11.054;2023-06-10T11:12:50;29.30;49.50
5346;DHT22;2695;49.444;11.054;2023-06-10T11:15:20;29.30;49.20
5346;DHT22;2695;49.444;11.054;2023-06-10T11:18:06;29.30;49.90
5346;DHT22;2695;49.444;11.054;2023-06-10T11:20:45;29.80;49.10
5346;DHT22;2695;49.444;11.054;2023-06-10T11:23:25;30.30;47.90
5346;DHT22;2695;49.444;11.054;2023-06-10T11:29:07;31.20;46.30
5346;DHT22;2695;49.444;11.054;2023-06-10T11:31:40;31.00;46.60
5346;DHT22;2695;49.444;11.054;2023-06-10T11:34:09;30.80;47.30
5346;DHT22;2695;49.444;11.054;2023-06-10T11:36:39;30.70;47.60
5346;DHT22;2695;49.444;11.054;2023-06-10T11:39:09;30.30;47.30
5346;DHT22;2695;49.444;11.054;2023-06-10T11:41:38;30.30;47.70
5346;DHT22;2695;49.444;11.054;2023-06-10T11:44:10;30.00;45.70
5346;DHT22;2695;49.444;11.054;2023-06-10T11:46:43;30.20;46.00
5346;DHT22;2695;49.444;11.054;2023-06-10T11:49:12;30.60;45.50
5346;DHT22;2695;49.444;11.054;2023-06-10T11:51:41;31.30;45.10
5346;DHT22;2695;49.444;11.054;2023-06-10T11:54:15;31.70;44.00
5346;DHT22;2695;49.444;11.054;2023-06-10T11:56:45;31.90;44.00
5346;DHT22;2695;49.444;11.054;2023-06-10T11:59:15;31.80;44.00
5346;DHT22;2695;49.444;11.054;2023-06-10T12:01:44;31.40;44.90
5346;DHT22;2695;49.444;11.054;2023-06-10T12:04:14;31.20;46.30
5346;DHT22;2695;49.444;11.054;2023-06-10T12:06:44;30.70;47.20
5346;DHT22;2695;49.444;11.054;2023-06-10T12:09:18;30.30;48.40
5346;DHT22;2695;49.444;11.054;2023-06-10T12:11:55;29.90;49.10
5346;DHT22;2695;49.444;11.054;2023-06-10T12:14:54;29.70;49.40
5346;DHT22;2695;49.444;11.054;2023-06-10T12:17:35;29.70;48.60
5346;DHT22;2695;49.444;11.054;2023-06-10T12:20:06;29.50;48.00
5346;DHT22;2695;49.444;11.054;2023-06-10T12:22:38;29.30;49.10
5346;DHT22;2695;49.444;11.054;2023-06-10T12:25:08;29.40;48.50
5346;DHT22;2695;49.444;11.054;2023-06-10T12:27:38;29.70;48.00
5346;DHT22;2695;49.444;11.054;2023-06-10T12:30:09;29.80;47.80
5346;DHT22;2695;49.444;11.054;2023-06-10T12:32:39;29.50;48.30
5346;DHT22;2695;49.444;11.054;2023-06-10T12:35:10;29.10;48.90
5346;DHT22;2695;49.444;11.054;2023-06-10T12:37:39;28.90;50.80
5346;DHT22;2695;49.444;11.054;2023-06-10T12:40:10;28.60;51.10
5346;DHT22;2695;49.444;11.054;2023-06-10T12:42:39;28.70;51.10
5346;DHT22;2695;49.444;11.054;2023-06-10T12:45:10;28.70;50.60
5346;DHT22;2695;49.444;11.054;2023-06-10T12:47:40;28.80;49.70
5346;DHT22;2695;49.444;11.054;2023-06-10T12:50:09;28.70;50.10
5346;DHT22;2695;49.444;11.054;2023-06-10T12:52:39;28.80;50.20
5346;DHT22;2695;49.444;11.054;2023-06-10T12:55:08;28.90;50.70
5346;DHT22;2695;49.444;11.054;2023-06-10T12:57:37;29.20;49.40
5346;DHT22;2695;49.444;11.054;2023-06-10T13:00:06;29.20;49.00
5346;DHT22;2695;49.444;11.054;2023-06-10T13:02:38;29.20;49.30
5346;DHT22;2695;49.444;11.054;2023-06-10T13:05:06;28.90;50.30
5346;DHT22;2695;49.444;11.054;2023-06-10T13:07:36;28.90;50.60
5346;DHT22;2695;49.444;11.054;2023-06-10T13:10:04;28.90;50.80
5346;DHT22;2695;49.444;11.054;2023-06-10T13:12:32;29.00;50.90
5346;DHT22;2695;49.444;11.054;2023-06-10T13:15:13;29.10;50.00
5346;DHT22;2695;49.444;11.054;2023-06-10T13:17:44;29.40;49.40
5346;DHT22;2695;49.444;11.054;2023-06-10T13:20:16;29.60;49.10
5346;DHT22;2695;49.444;11.054;2023-06-10T13:22:45;29.60;48.90
5346;DHT22;2695;49.444;11.054;2023-06-10T13:25:13;29.50;49.10
5346;DHT22;2695;49.444;11.054;2023-06-10T13:27:41;29.70;49.10
5346;DHT22;2695;49.444;11.054;2023-06-10T13:30:10;29.80;49.00
5346;DHT22;2695;49.444;11.054;2023-06-10T13:32:38;29.70;48.80
5346;DHT22;2695;49.444;11.054;2023-06-10T13:35:08;29.60;48.10
5346;DHT22;2695;49.444;11.054;2023-06-10T13:37:37;29.70;48.30
5346;DHT22;2695;49.444;11.054;2023-06-10T13:40:06;29.70;48.00
5346;DHT22;2695;49.444;11.054;2023-06-10T13:42:36;29.80;48.30
5346;DHT22;2695;49.444;11.054;2023-06-10T13:45:05;30.00;48.50
5346;DHT22;2695;49.444;11.054;2023-06-10T13:47:34;30.20;47.20
5346;DHT22;2695;49.444;11.054;2023-06-10T13:50:03;30.40;46.70
5346;DHT22;2695;49.444;11.054;2023-06-10T13:52:32;30.20;46.60
5346;DHT22;2695;49.444;11.054;2023-06-10T13:55:00;30.00;46.30
5346;DHT22;2695;49.444;11.054;2023-06-10T13:57:28;29.70;46.30
5346;DHT22;2695;49.444;11.054;2023-06-10T13:59:57;29.30;46.60
5346;DHT22;2695;49.444;11.054;2023-06-10T14:02:26;29.10;46.80
5346;DHT22;2695;49.444;11.054;2023-06-10T14:05:07;28.90;47.70
5346;DHT22;2695;49.444;11.054;2023-06-10T14:07:37;28.60;47.80
5346;DHT22;2695;49.444;11.054;2023-06-10T14:10:08;28.80;48.40
5346;DHT22;2695;49.444;11.054;2023-06-10T14:12:37;28.90;48.40
5346;DHT22;2695;49.444;11.054;2023-06-10T14:15:07;28.90;49.50
5346;DHT22;2695;49.444;11.054;2023-06-10T14:17:36;29.00;49.90
5346;DHT22;2695;49.444;11.054;2023-06-10T14:20:05;29.10;49.60
5346;DHT22;2695;49.444;11.054;2023-06-10T14:22:34;29.20;50.00
5346;DHT22;2695;49.444;11.054;2023-06-10T14:25:08;29.10;50.30
5346;DHT22;2695;49.444;11.054;2023-06-10T14:27:38;29.00;50.70
5346;DHT22;2695;49.444;11.054;2023-06-10T14:30:07;28.70;51.20
5346;DHT22;2695;49.444;11.054;2023-06-10T14:32:35;28.40;51.50
5346;DHT22;2695;49.444;11.054;2023-06-10T14:35:08;28.30;52.40
5346;DHT22;2695;49.444;11.054;2023-06-10T14:37:36;28.30;52.20
5346;DHT22;2695;49.444;11.054;2023-06-10T14:40:07;28.30;52.20
5346;DHT22;2695;49.444;11.054;2023-06-10T14:42:36;28.40;52.20
5346;DHT22;2695;49.444;11.054;2023-06-10T14:45:05;28.50;52.60
5346;DHT22;2695;49.444;11.054;2023-06-10T14:47:33;28.60;51.10
5346;DHT22;2695;49.444;11.054;2023-06-10T14:50:02;28.60;51.40
5346;DHT22;2695;49.444;11.054;2023-06-10T14:52:30;28.50;51.40
5346;DHT22;2695;49.444;11.054;2023-06-10T14:54:58;28.40;51.30
5346;DHT22;2695;49.444;11.054;2023-06-10T14:57:27;28.60;51.50
5346;DHT22;2695;49.444;11.054;2023-06-10T14:59:56;28.70;51.60
5346;DHT22;2695;49.444;11.054;2023-06-10T15:02:24;28.80;51.40
5346;DHT22;2695;49.444;11.054;2023-06-10T15:04:53;28.90;51.00
5346;DHT22;2695;49.444;11.054;2023-06-10T15:07:21;28.30;51.40
5346;DHT22;2695;49.444;11.054;2023-06-10T15:09:49;28.10;52.10
5346;DHT22;2695;49.444;11.054;2023-06-10T15:12:17;28.20;52.70
5346;DHT22;2695;49.444;11.054;2023-06-10T15:14:47;28.20;52.30
5346;DHT22;2695;49.444;11.054;2023-06-10T15:17:15;28.40;52.10
5346;DHT22;2695;49.444;11.054;2023-06-10T15:19:42;28.70;52.30
5346;DHT22;2695;49.444;11.054;2023-06-10T15:22:11;29.00;52.50
5346;DHT22;2695;49.444;11.054;2023-06-10T15:24:40;29.10;53.00
5346;DHT22;2695;49.444;11.054;2023-06-10T15:27:09;29.20;53.30
5346;DHT22;2695;49.444;11.054;2023-06-10T15:29:37;29.20;52.70
5346;DHT22;2695;49.444;11.054;2023-06-10T15:32:08;29.10;52.50
5346;DHT22;2695;49.444;11.054;2023-06-10T15:34:45;28.80;53.60
5346;DHT22;2695;49.444;11.054;2023-06-10T15:37:14;28.40;54.20
5346;DHT22;2695;49.444;11.054;2023-06-10T15:39:42;28.20;56.00
5346;DHT22;2695;49.444;11.054;2023-06-10T15:42:11;28.10;55.80
5346;DHT22;2695;49.444;11.054;2023-06-10T15:44:39;28.00;56.50
5346;DHT22;2695;49.444;11.054;2023-06-10T15:47:09;28.00;56.30
5346;DHT22;2695;49.444;11.054;2023-06-10T15:49:37;28.00;55.40
5346;DHT22;2695;49.444;11.054;2023-06-10T15:52:06;28.00;55.30
5346;DHT22;2695;49.444;11.054;2023-06-10T15:54:34;27.90;55.00
5346;DHT22;2695;49.444;11.054;2023-06-10T15:57:03;27.80;55.60
5346;DHT22;2695;49.444;11.054;2023-06-10T15:59:32;27.90;55.40
5346;DHT22;2695;49.444;11.054;2023-06-10T16:02:01;27.90;55.00